CheckWX is a tool to help pilots better visualize weather data.  It is not intended as a substitute for an official pre-flight weather briefing.

03:58:08 UTC

SLJO METAR
San Joaquín Airport
San Joaquín, Bolivia
Current

6 hours ago

SLJO 052200Z 00000KT 8000 TS VCSH FEW017 FEW023CB BKN200 25/23 Q1007
Observed
Dec-5 @ 22:00 UTC
Visibility
8,000 meters
Flight Rules
MVFR
Conditions
Thunderstorm
Cloud Levels
  • Few at 1,700' AGL
  • Few at 2,300' AGL
  • Broken at 20,000' AGL
Temperature
25°C / 77°F
Dewpoint
23°C / 73°F
Humidity
89%
Altimeter
29.73" Hg
Pressure
1006.92 hPa
Previous

7 hours ago

SLJO 052100Z 00000KT 6000 TS VCSH FEW017 FEW023CB BKN200 32/27 Q1007
Observed
Dec-5 @ 21:00 UTC
Visibility
6,000 meters
Flight Rules
MVFR
Conditions
Thunderstorm
Cloud Levels
  • Few at 1,700' AGL
  • Few at 2,300' AGL
  • Broken at 20,000' AGL
Temperature
32°C / 90°F
Dewpoint
27°C / 81°F
Heat Index
43°C / 109°F
Humidity
75%
Altimeter
29.73" Hg
Pressure
1006.92 hPa
Previous

8 hours ago

SLJO 052000Z 00000KT 9999 SCT017 FEW023CB BKN200 29/25 Q1007
Observed
Dec-5 @ 20:00 UTC
Visibility
10,000+ meters
Flight Rules
VFR
Cloud Levels
  • Scattered at 1,700' AGL
  • Few at 2,300' AGL
  • Broken at 20,000' AGL
Temperature
29°C / 84°F
Dewpoint
25°C / 77°F
Heat Index
34°C / 94°F
Humidity
79%
Altimeter
29.73" Hg
Pressure
1006.92 hPa